Time;durP1;ratioP1;P1;durP2;ratioP2;P2;SDS_P1;SDS_P2;PMS_P1;PMS_P2;Temp;Humidity;BMP_temperature;BMP_pressure;BME280_temperature;BME280_humidity;BME280_pressure;Samples;Min_cycle;Max_cycle;Signal;HPM_P1;HPM_P2
2021/06/27 00:01:21;;;;;;;29.83;23.23;;;;;;;18.72;73.98;101759.84;5112495;28;20517;-62
2021/06/27 00:03:49;;;;;;;32.80;23.02;;;;;;;18.63;74.39;101760.63;5112545;27;20048;-62
2021/06/27 00:06:16;;;;;;;30.58;23.20;;;;;;;18.55;74.82;101763.09;5104147;27;20045;-61
2021/06/27 00:08:42;;;;;;;30.20;23.45;;;;;;;18.55;74.86;101763.91;5131315;27;20050;-54
2021/06/27 00:11:11;;;;;;;30.20;23.13;;;;;;;18.54;74.69;101761.41;5112507;27;20047;-62
2021/06/27 00:13:39;;;;;;;31.60;24.33;;;;;;;18.48;75.12;101764.59;5126023;27;20043;-62
2021/06/27 00:16:07;;;;;;;35.47;25.60;;;;;;;18.42;75.52;101765.97;5109856;28;20495;-61
2021/06/27 00:18:35;;;;;;;32.55;24.63;;;;;;;18.36;75.84;101767.28;5092845;27;20043;-61
2021/06/27 00:21:06;;;;;;;32.70;23.52;;;;;;;18.50;75.43;101774.16;5110053;28;20055;-62
2021/06/27 00:23:37;;;;;;;31.40;24.88;;;;;;;18.40;75.82;101771.38;5094284;28;20064;-61
2021/06/27 00:26:07;;;;;;;31.75;24.35;;;;;;;18.39;75.80;101771.50;5131830;27;20043;-61
2021/06/27 00:28:33;;;;;;;31.80;23.83;;;;;;;18.39;76.09;101766.19;5131092;27;20058;-61
2021/06/27 00:31:03;;;;;;;34.13;25.52;;;;;;;18.32;76.14;101773.00;5130826;28;20055;-61
2021/06/27 00:33:30;;;;;;;34.33;25.08;;;;;;;18.36;76.39;101769.94;5131094;28;20408;-61
2021/06/27 00:35:57;;;;;;;34.58;26.58;;;;;;;18.25;76.66;101764.69;5089992;28;20044;-61
2021/06/27 00:38:24;;;;;;;33.97;25.02;;;;;;;18.30;76.58;101757.16;5056354;28;20048;-61
2021/06/27 00:40:52;;;;;;;30.75;24.52;;;;;;;18.32;76.56;101757.88;5111710;28;20100;-61
2021/06/27 00:43:19;;;;;;;33.45;25.17;;;;;;;18.36;76.57;101761.13;5092587;28;20113;-61
2021/06/27 00:45:46;;;;;;;32.72;26.20;;;;;;;18.24;76.84;101760.34;5072809;28;20093;-62
2021/06/27 00:48:13;;;;;;;33.30;25.42;;;;;;;18.21;77.08;101763.25;5090656;28;20056;-62
2021/06/27 00:50:45;;;;;;;33.40;26.13;;;;;;;18.24;77.32;101757.66;5089902;28;20044;-61
2021/06/27 00:53:14;;;;;;;36.93;26.47;;;;;;;18.11;77.78;101757.03;5115146;28;20047;-62
2021/06/27 00:55:41;;;;;;;33.28;24.80;;;;;;;18.19;77.46;101763.38;5116739;27;20300;-62
2021/06/27 00:58:08;;;;;;;32.88;26.23;;;;;;;18.18;77.64;101758.19;5122554;27;20119;-62
2021/06/27 01:00:39;;;;;;;35.45;27.73;;;;;;;18.05;78.15;101767.19;5134877;27;20384;-62
2021/06/27 01:03:08;;;;;;;34.90;26.92;;;;;;;18.12;78.03;101761.34;5136197;27;20130;-62
2021/06/27 01:05:39;;;;;;;34.17;26.80;;;;;;;18.08;78.32;101753.63;5122882;27;20066;-62
2021/06/27 01:08:06;;;;;;;36.30;27.40;;;;;;;18.01;78.62;101760.44;5097220;28;20044;-61
2021/06/27 01:10:34;;;;;;;35.05;27.25;;;;;;;18.06;78.23;101768.91;5113486;27;20047;-54
2021/06/27 01:13:02;;;;;;;35.67;26.90;;;;;;;18.04;78.49;101764.66;5115073;27;20047;-53
2021/06/27 01:15:28;;;;;;;36.58;27.67;;;;;;;18.03;78.64;101757.66;5131734;27;20051;-54
2021/06/27 01:17:57;;;;;;;33.58;26.52;;;;;;;18.00;78.67;101757.91;5133569;27;20035;-56
2021/06/27 01:20:29;;;;;;;37.40;27.20;;;;;;;18.05;78.82;101756.56;5118574;27;20126;-55
2021/06/27 01:22:59;;;;;;;35.53;26.58;;;;;;;18.02;79.02;101761.28;5113547;28;20101;-56
2021/06/27 01:25:30;;;;;;;34.65;26.45;;;;;;;18.07;78.94;101757.25;5126027;27;20540;-56
2021/06/27 01:27:57;;;;;;;36.70;28.13;;;;;;;17.97;79.36;101753.69;5127892;27;20072;-55
2021/06/27 01:30:26;;;;;;;38.83;28.75;;;;;;;17.92;79.87;101744.41;5094529;28;20047;-55
2021/06/27 01:32:55;;;;;;;36.75;27.80;;;;;;;17.94;79.81;101745.09;5116931;27;20095;-55
2021/06/27 01:35:24;;;;;;;40.60;29.00;;;;;;;17.90;80.33;101752.44;5132801;27;20051;-54
2021/06/27 01:37:52;;;;;;;38.53;28.75;;;;;;;17.82;80.40;101745.09;5130106;27;20542;-62
2021/06/27 01:40:22;;;;;;;37.85;28.92;;;;;;;17.82;80.89;101744.25;5114497;28;20047;-63
2021/06/27 01:42:50;;;;;;;42.50;31.80;;;;;;;17.78;80.79;101737.47;5115677;27;20047;-55
2021/06/27 01:45:23;;;;;;;40.47;29.52;;;;;;;17.74;80.87;101737.75;5114967;27;20430;-55
2021/06/27 01:48:01;;;;;;;44.83;30.85;;;;;;;17.63;81.89;101732.47;5128861;27;20043;-55
2021/06/27 01:50:28;;;;;;;41.35;30.83;;;;;;;17.74;81.43;101736.91;5077360;28;20048;-55
2021/06/27 01:53:00;;;;;;;38.85;30.60;;;;;;;17.69;81.80;101729.28;5094914;27;20073;-56
2021/06/27 01:55:27;;;;;;;42.28;31.20;;;;;;;17.62;82.16;101729.94;5112731;28;20043;-54
2021/06/27 01:57:55;;;;;;;42.08;31.20;;;;;;;17.64;82.21;101730.63;5117364;27;20051;-54
2021/06/27 02:00:24;;;;;;;43.50;31.33;;;;;;;17.63;82.25;101731.59;5112281;27;20043;-55
2021/06/27 02:02:52;;;;;;;43.13;31.30;;;;;;;17.54;82.59;101728.72;5111742;28;20051;-55
2021/06/27 02:05:19;;;;;;;40.63;31.48;;;;;;;17.53;82.76;101726.19;5111115;28;20122;-52
2021/06/27 02:07:46;;;;;;;47.55;32.63;;;;;;;17.58;82.80;101727.50;5112082;28;20040;-54
2021/06/27 02:10:17;;;;;;;43.40;31.08;;;;;;;17.53;82.65;101724.38;5112811;27;20047;-55
2021/06/27 02:12:44;;;;;;;45.05;32.72;;;;;;;17.54;82.96;101723.41;5124139;27;20046;-56
2021/06/27 02:15:12;;;;;;;43.55;30.85;;;;;;;17.46;83.29;101722.34;5115396;27;20062;-53
2021/06/27 02:17:48;;;;;;;48.00;31.92;;;;;;;17.50;83.22;101718.47;5115131;27;20031;-54
2021/06/27 02:20:15;;;;;;;48.22;33.50;;;;;;;17.39;83.80;101727.31;5114856;27;20767;-54
2021/06/27 02:22:42;;;;;;;42.40;32.13;;;;;;;17.37;83.90;101730.09;5111968;28;20568;-55
2021/06/27 02:25:10;;;;;;;49.33;32.15;;;;;;;17.38;83.95;101730.94;5125182;27;20471;-52
2021/06/27 02:27:37;;;;;;;45.33;33.15;;;;;;;17.41;83.98;101736.03;5131691;27;20048;-54
2021/06/27 02:30:07;;;;;;;49.47;33.25;;;;;;;17.35;84.05;101732.00;5117321;27;20089;-55
2021/06/27 02:32:34;;;;;;;46.63;33.88;;;;;;;17.34;83.90;101740.97;5111909;28;20040;-54
2021/06/27 02:35:01;;;;;;;51.75;33.72;;;;;;;17.44;83.58;101740.22;5120940;27;20039;-53
2021/06/27 02:37:28;;;;;;;45.53;32.22;;;;;;;17.36;84.02;101739.03;5114155;27;20047;-56
2021/06/27 02:39:54;;;;;;;47.40;33.28;;;;;;;17.38;83.93;101745.09;5122033;27;20073;-55
2021/06/27 02:42:21;;;;;;;45.20;33.33;;;;;;;17.43;83.97;101733.22;5111022;28;20480;-53
2021/06/27 02:44:48;;;;;;;45.35;33.42;;;;;;;17.31;84.45;101735.88;5115364;27;20194;-53
2021/06/27 02:47:16;;;;;;;45.97;32.97;;;;;;;17.39;83.88;101730.78;5093642;28;20092;-55
2021/06/27 02:49:44;;;;;;;51.25;33.95;;;;;;;17.32;84.32;101737.59;5092893;28;20504;-54
2021/06/27 02:52:11;;;;;;;48.75;32.03;;;;;;;17.32;84.44;101732.25;5093563;28;20048;-55
2021/06/27 02:54:38;;;;;;;49.10;34.42;;;;;;;17.29;84.81;101727.19;5116958;27;20404;-55
2021/06/27 02:57:04;;;;;;;47.60;31.95;;;;;;;17.34;84.58;101730.34;5092728;28;20530;-55
2021/06/27 02:59:31;;;;;;;47.53;33.70;;;;;;;17.35;84.08;101731.19;5096676;27;20039;-54
2021/06/27 03:01:58;;;;;;;50.38;33.80;;;;;;;17.34;84.45;101730.34;5130097;27;20110;-55
2021/06/27 03:04:25;;;;;;;49.63;32.08;;;;;;;17.27;84.66;101723.81;5125525;27;20425;-56
2021/06/27 03:06:51;;;;;;;45.80;33.10;;;;;;;17.24;84.89;101726.72;5112771;27;20084;-54
2021/06/27 03:09:18;;;;;;;48.75;34.70;;;;;;;17.28;84.97;101725.50;5112895;27;20062;-55
2021/06/27 03:11:45;;;;;;;46.63;33.35;;;;;;;17.29;84.71;101727.19;5131160;27;20070;-55
2021/06/27 03:14:12;;;;;;;49.00;33.95;;;;;;;17.22;85.13;101732.16;5106158;27;20044;-54
2021/06/27 03:16:39;;;;;;;49.17;33.55;;;;;;;17.18;85.27;101727.22;5130398;27;20046;-55
2021/06/27 03:19:06;;;;;;;47.40;34.00;;;;;;;17.17;85.91;101718.38;5093669;28;20403;-54
2021/06/27 03:21:32;;;;;;;49.75;34.25;;;;;;;17.10;86.00;101713.66;5129879;27;20115;-55
2021/06/27 03:23:59;;;;;;;48.38;33.85;;;;;;;17.17;85.64;101715.72;5131378;27;20070;-54
2021/06/27 03:26:26;;;;;;;52.92;34.63;;;;;;;17.20;85.90;101711.97;5113302;27;20047;-54
2021/06/27 03:28:53;;;;;;;49.97;34.15;;;;;;;17.13;86.26;101701.00;5127186;27;20491;-54
2021/06/27 03:31:19;;;;;;;48.55;34.17;;;;;;;17.12;85.75;101704.59;5113983;27;20051;-54
2021/06/27 03:33:46;;;;;;;48.63;32.42;;;;;;;17.03;86.17;101706.19;5113592;27;20039;-55
2021/06/27 03:36:13;;;;;;;50.25;33.88;;;;;;;17.06;86.13;101690.00;5120764;27;20436;-55
2021/06/27 03:38:51;;;;;;;49.38;32.90;;;;;;;16.98;86.35;101692.41;5122611;27;20053;-55
2021/06/27 03:41:22;;;;;;;51.03;34.78;;;;;;;17.00;86.42;101695.81;5125426;27;20106;-56
2021/06/27 03:43:50;;;;;;;50.72;33.22;;;;;;;16.98;86.33;101689.75;5110425;28;20044;-55
2021/06/27 03:46:17;;;;;;;52.30;34.50;;;;;;;16.98;86.61;101680.97;5092601;28;20419;-54
2021/06/27 03:48:44;;;;;;;50.50;34.65;;;;;;;16.99;86.55;101690.63;5110200;28;20042;-54
2021/06/27 03:51:11;;;;;;;48.25;33.67;;;;;;;17.00;86.36;101681.66;5097705;27;20526;-53
2021/06/27 03:53:37;;;;;;;56.50;35.90;;;;;;;16.96;86.51;101688.19;5112557;27;20042;-52
2021/06/27 03:56:04;;;;;;;51.53;34.80;;;;;;;16.97;86.76;101690.72;5128682;27;20035;-55
2021/06/27 03:58:31;;;;;;;50.60;33.50;;;;;;;17.04;86.40;101675.16;5130327;27;20050;-53
2021/06/27 04:00:58;;;;;;;51.83;34.33;;;;;;;17.01;86.30;101681.53;5130250;27;20058;-55
2021/06/27 04:03:25;;;;;;;50.38;33.08;;;;;;;17.02;86.24;101683.25;5130356;27;20051;-56
2021/06/27 04:05:52;;;;;;;53.88;33.13;;;;;;;17.10;86.03;101679.97;5129035;27;20062;-55
2021/06/27 04:08:19;;;;;;;52.65;34.60;;;;;;;17.11;85.65;101680.81;5130525;27;20047;-56
2021/06/27 04:10:45;;;;;;;49.08;33.30;;;;;;;17.11;85.72;101675.50;5130523;27;20039;-54
2021/06/27 04:13:15;;;;;;;50.75;33.78;;;;;;;17.07;85.72;101680.25;5110462;28;20044;-61
2021/06/27 04:15:42;;;;;;;53.17;34.47;;;;;;;17.05;85.66;101684.81;5093017;27;20127;-60
2021/06/27 04:18:10;;;;;;;47.05;32.42;;;;;;;17.08;85.65;101676.59;5092238;28;20124;-60
2021/06/27 04:20:37;;;;;;;48.55;33.10;;;;;;;17.15;85.08;101680.47;5111021;27;20108;-60
2021/06/27 04:23:05;;;;;;;49.17;33.38;;;;;;;17.24;85.24;101676.22;5092666;28;20047;-61
2021/06/27 04:25:33;;;;;;;48.63;32.22;;;;;;;17.28;84.57;101675.00;5130219;27;20047;-60
2021/06/27 04:28:00;;;;;;;48.03;32.80;;;;;;;17.26;84.70;101679.59;5129129;27;20043;-62
2021/06/27 04:30:27;;;;;;;43.70;30.65;;;;;;;17.31;84.22;101669.44;5127915;27;20047;-54
2021/06/27 04:32:54;;;;;;;46.42;32.75;;;;;;;17.27;84.56;101675.97;5128972;28;20502;-60
2021/06/27 04:35:21;;;;;;;46.85;31.38;;;;;;;17.42;84.27;101675.69;5128583;28;20050;-60
2021/06/27 04:37:47;;;;;;;45.63;31.13;;;;;;;17.43;84.09;101672.09;5118162;28;20040;-60
2021/06/27 04:40:14;;;;;;;45.65;31.40;;;;;;;17.42;83.63;101667.72;5111773;28;20047;-60
2021/06/27 04:42:41;;;;;;;42.90;30.75;;;;;;;17.43;83.34;101664.09;5119608;28;20249;-61
2021/06/27 04:45:09;;;;;;;43.65;30.10;;;;;;;17.50;83.16;101663.47;5128726;28;20131;-60
2021/06/27 04:47:36;;;;;;;44.15;30.50;;;;;;;17.56;83.32;101659.44;5094585;28;20043;-60
2021/06/27 04:50:04;;;;;;;47.80;30.13;;;;;;;17.58;83.23;101662.84;5129058;28;20569;-60
2021/06/27 04:52:34;;;;;;;43.65;30.75;;;;;;;17.61;83.14;101664.41;5130280;28;20059;-61
2021/06/27 04:55:05;;;;;;;43.80;30.02;;;;;;;17.68;82.60;101661.13;5130170;28;20119;-60
2021/06/27 04:57:32;;;;;;;45.70;30.60;;;;;;;17.68;82.48;101658.47;5128605;28;20051;-60
2021/06/27 04:59:59;;;;;;;43.08;30.55;;;;;;;17.75;82.27;101664.09;5104956;28;20051;-60
2021/06/27 05:02:26;;;;;;;42.90;29.95;;;;;;;17.86;81.59;101665.88;5128186;28;20051;-60
2021/06/27 05:04:53;;;;;;;42.08;29.70;;;;;;;17.86;81.49;101665.88;5117423;28;20418;-60
2021/06/27 05:07:20;;;;;;;44.78;30.08;;;;;;;17.93;80.63;101663.56;5108953;28;20052;-60
2021/06/27 05:09:47;;;;;;;41.95;29.58;;;;;;;18.00;80.81;101659.44;5120226;28;20051;-60
2021/06/27 05:12:13;;;;;;;39.38;28.83;;;;;;;18.05;80.18;101659.88;5123345;28;20043;-61
2021/06/27 05:14:40;;;;;;;43.97;29.15;;;;;;;18.09;80.07;101661.31;5121367;28;20043;-61
2021/06/27 05:17:07;;;;;;;44.45;29.83;;;;;;;18.07;80.09;101666.75;5091596;28;20052;-61
2021/06/27 05:19:36;;;;;;;43.38;29.92;;;;;;;18.08;80.05;101663.13;5115780;28;20035;-61
2021/06/27 05:22:03;;;;;;;40.17;29.00;;;;;;;18.13;79.67;101657.41;5118583;28;20047;-61
2021/06/27 05:24:30;;;;;;;43.85;28.83;;;;;;;18.26;79.55;101659.91;5115483;28;20055;-61
2021/06/27 05:26:57;;;;;;;40.15;28.27;;;;;;;18.24;79.46;101659.16;5115517;28;20055;-61
2021/06/27 05:29:23;;;;;;;40.08;27.02;;;;;;;18.31;78.87;101652.38;5112675;28;20035;-55
2021/06/27 05:31:50;;;;;;;38.53;27.02;;;;;;;18.39;78.52;101646.38;5119346;28;20054;-55
2021/06/27 05:34:17;;;;;;;38.35;27.52;;;;;;;18.34;78.42;101651.25;5110704;28;20056;-51
2021/06/27 05:36:44;;;;;;;36.85;26.55;;;;;;;18.36;78.06;101633.31;5130182;28;20072;-54
2021/06/27 05:39:12;;;;;;;37.63;26.10;;;;;;;18.41;78.09;101639.94;5129850;27;20047;-53
2021/06/27 05:41:40;;;;;;;36.90;27.13;;;;;;;18.42;77.80;101638.13;5119636;27;20054;-52
2021/06/27 05:44:07;;;;;;;39.03;27.08;;;;;;;18.51;77.71;101639.16;5115365;27;20043;-55
2021/06/27 05:46:34;;;;;;;36.88;26.80;;;;;;;18.58;77.67;101634.97;5132525;27;20051;-54
2021/06/27 05:49:05;;;;;;;36.28;26.70;;;;;;;18.62;77.33;101635.56;5117519;27;20121;-53
2021/06/27 05:51:33;;;;;;;37.53;26.42;;;;;;;18.72;76.49;101621.28;5119481;27;20418;-54
2021/06/27 05:54:00;;;;;;;36.53;26.35;;;;;;;18.76;76.29;101619.22;5113837;27;20043;-53
2021/06/27 05:56:34;;;;;;;35.20;25.95;;;;;;;18.87;75.97;101612.91;5091574;28;20571;-51
2021/06/27 05:59:00;;;;;;;36.80;25.52;;;;;;;18.89;75.67;101614.50;5120486;27;20120;-55
2021/06/27 06:01:27;;;;;;;35.38;26.25;;;;;;;19.02;75.60;101613.41;5132140;27;20066;-52
2021/06/27 06:03:54;;;;;;;32.83;25.88;;;;;;;19.06;75.68;101613.00;5113142;27;20051;-56
2021/06/27 06:06:21;;;;;;;34.10;25.80;;;;;;;19.11;75.82;101617.09;5099431;28;20043;-53
2021/06/27 06:08:48;;;;;;;33.65;24.48;;;;;;;19.25;75.39;101627.34;5111506;28;20067;-55
2021/06/27 06:11:16;;;;;;;33.53;24.08;;;;;;;19.36;75.03;101635.25;5107218;27;20051;-55
2021/06/27 06:13:43;;;;;;;31.55;23.00;;;;;;;19.48;74.35;101637.78;5133492;27;20055;-55
2021/06/27 06:16:11;;;;;;;32.90;25.27;;;;;;;19.51;74.58;101634.81;5124888;27;20039;-55
2021/06/27 06:18:42;;;;;;;33.45;24.10;;;;;;;19.58;74.16;101630.63;5113734;27;20054;-53
2021/06/27 06:21:10;;;;;;;34.30;25.42;;;;;;;19.53;73.25;101628.38;5122490;27;20073;-55
2021/06/27 06:23:37;;;;;;;34.55;24.65;;;;;;;19.56;73.58;101636.06;5092510;28;20048;-54
2021/06/27 06:26:04;;;;;;;32.15;23.55;;;;;;;19.58;73.68;101639.47;5103419;27;20379;-55
2021/06/27 06:28:31;;;;;;;33.88;25.33;;;;;;;19.65;73.45;101644.25;5130853;27;20042;-55
2021/06/27 06:30:58;;;;;;;32.47;24.70;;;;;;;19.63;72.71;101647.03;5106704;27;20449;-55
2021/06/27 06:33:25;;;;;;;35.63;25.40;;;;;;;19.66;73.05;101646.78;5113913;27;20047;-53
2021/06/27 06:35:52;;;;;;;33.72;24.20;;;;;;;19.67;73.32;101643.09;5121724;27;20051;-53
2021/06/27 06:38:18;;;;;;;38.10;25.65;;;;;;;19.75;73.20;101640.56;5113926;27;20433;-54
2021/06/27 06:40:45;;;;;;;35.35;24.35;;;;;;;19.86;71.94;101639.63;5128640;27;20515;-53
2021/06/27 06:43:12;;;;;;;33.38;23.58;;;;;;;19.97;72.07;101646.63;5111613;28;20062;-62
2021/06/27 06:45:39;;;;;;;36.70;24.33;;;;;;;20.09;72.01;101656.16;5123217;27;20154;-56
2021/06/27 06:48:06;;;;;;;32.70;24.58;;;;;;;20.21;71.50;101651.53;5131396;27;20039;-53
2021/06/27 06:50:33;;;;;;;30.52;23.35;;;;;;;20.37;70.64;101658.09;5130474;27;20039;-55
2021/06/27 06:53:01;;;;;;;33.40;24.27;;;;;;;20.59;70.02;101654.25;5111273;28;20397;-56
2021/06/27 06:55:27;;;;;;;30.27;22.75;;;;;;;20.71;69.48;101654.91;5112568;27;20047;-55
2021/06/27 06:57:55;;;;;;;31.80;23.45;;;;;;;20.81;68.75;101658.38;5129786;27;20584;-55
2021/06/27 07:00:22;;;;;;;31.67;23.17;;;;;;;21.02;68.01;101659.97;5132193;27;20084;-60
2021/06/27 07:02:49;;;;;;;31.02;22.50;;;;;;;21.17;67.33;101652.28;5130811;27;20100;-55
2021/06/27 07:05:16;;;;;;;31.02;22.90;;;;;;;21.27;67.20;101650.41;5110325;27;20043;-60
2021/06/27 07:07:45;;;;;;;27.55;21.50;;;;;;;21.47;66.10;101643.06;5105388;27;20043;-53
2021/06/27 07:10:13;;;;;;;27.27;21.08;;;;;;;21.64;65.69;101644.13;5132274;27;20438;-51
2021/06/27 07:12:42;;;;;;;31.25;21.63;;;;;;;21.71;65.32;101639.81;5116830;27;20056;-52
2021/06/27 07:15:09;;;;;;;29.25;22.10;;;;;;;21.87;65.36;101641.78;5118211;27;20054;-60
2021/06/27 07:17:36;;;;;;;29.42;22.25;;;;;;;21.97;64.34;101643.53;5099834;28;20629;-60
2021/06/27 07:20:06;;;;;;;28.48;22.70;;;;;;;22.03;63.91;101637.56;5109328;28;20053;-52
2021/06/27 07:22:33;;;;;;;28.95;22.88;;;;;;;22.19;63.49;101639.50;5124134;27;20047;-60
2021/06/27 07:25:00;;;;;;;26.33;21.35;;;;;;;22.26;63.28;101648.59;5125345;27;20465;-54
2021/06/27 07:27:26;;;;;;;26.23;19.33;;;;;;;22.39;63.82;101649.03;5121752;27;20051;-54
2021/06/27 07:29:53;;;;;;;26.85;20.92;;;;;;;22.48;63.17;101644.56;5125664;27;20139;-60
2021/06/27 07:32:20;;;;;;;27.05;20.30;;;;;;;22.49;62.94;101640.06;5111326;28;20047;-60
2021/06/27 07:34:47;;;;;;;24.83;20.20;;;;;;;22.54;61.95;101638.56;5094798;27;20055;-53
2021/06/27 07:37:14;;;;;;;28.00;20.98;;;;;;;22.44;62.76;101633.34;5131385;27;20058;-55
2021/06/27 07:39:40;;;;;;;27.67;21.23;;;;;;;22.61;63.00;101639.59;5129764;27;20047;-61
2021/06/27 07:42:07;;;;;;;26.38;20.63;;;;;;;22.64;62.41;101640.31;5110093;28;20039;-55
2021/06/27 07:44:34;;;;;;;26.02;20.90;;;;;;;22.59;62.67;101641.63;5113816;27;20054;-55
2021/06/27 07:47:01;;;;;;;25.00;20.10;;;;;;;22.61;62.52;101644.13;5130622;27;20422;-54
2021/06/27 07:49:28;;;;;;;25.58;19.60;;;;;;;22.70;62.24;101639.66;5129372;27;20040;-61
2021/06/27 07:51:54;;;;;;;27.70;20.58;;;;;;;22.61;62.09;101649.50;5131158;27;20736;-59
2021/06/27 07:54:21;;;;;;;27.38;20.42;;;;;;;22.57;62.39;101642.78;5113134;27;20125;-60
2021/06/27 07:56:48;;;;;;;24.67;18.45;;;;;;;22.79;62.32;101638.69;5112957;27;20101;-60
2021/06/27 07:59:15;;;;;;;23.75;18.83;;;;;;;22.77;61.22;101638.84;5126747;27;20507;-60
2021/06/27 08:01:42;;;;;;;23.15;18.30;;;;;;;22.84;61.59;101641.72;5111232;27;20051;-59
2021/06/27 08:04:09;;;;;;;23.83;19.00;;;;;;;22.86;61.56;101644.25;5074785;28;20108;-59
2021/06/27 08:06:36;;;;;;;23.05;18.70;;;;;;;22.94;60.69;101638.91;5127610;27;20122;-55
2021/06/27 08:09:04;;;;;;;24.70;18.77;;;;;;;23.08;60.86;101645.47;5130639;27;20047;-56
2021/06/27 08:11:30;;;;;;;22.90;18.20;;;;;;;23.25;61.81;101643.72;5117770;27;20550;-55
2021/06/27 08:13:57;;;;;;;25.45;20.45;;;;;;;23.24;61.93;101645.56;5115224;27;20039;-60
2021/06/27 08:16:24;;;;;;;25.88;20.23;;;;;;;23.28;62.31;101636.19;5123465;27;20047;-60
2021/06/27 08:18:51;;;;;;;25.35;19.92;;;;;;;23.31;61.73;101632.31;5112841;27;20047;-60
2021/06/27 08:21:19;;;;;;;26.13;21.42;;;;;;;23.44;61.67;101645.28;5079055;27;20050;-60
2021/06/27 08:23:46;;;;;;;25.30;19.48;;;;;;;23.60;61.58;101647.13;5118502;27;20092;-56
2021/06/27 08:26:13;;;;;;;24.70;20.15;;;;;;;23.56;60.65;101638.56;5102574;28;20411;-55
2021/06/27 08:28:46;;;;;;;24.13;19.50;;;;;;;23.66;60.70;101637.59;5119214;28;20038;-60
2021/06/27 08:31:13;;;;;;;24.65;20.90;;;;;;;23.67;60.27;101636.56;5121880;27;20496;-60
2021/06/27 08:33:39;;;;;;;25.13;19.95;;;;;;;23.64;60.80;101640.41;5112657;28;20054;-60
2021/06/27 08:36:07;;;;;;;23.80;19.25;;;;;;;23.88;59.63;101644.97;5114054;28;20047;-61
2021/06/27 08:38:34;;;;;;;23.33;18.65;;;;;;;23.90;59.10;101637.59;5115022;28;20062;-61
2021/06/27 08:41:00;;;;;;;21.45;17.95;;;;;;;24.13;59.20;101639.56;5109891;28;20039;-60
2021/06/27 08:43:32;;;;;;;23.92;18.80;;;;;;;24.01;59.34;101641.78;5124794;28;20055;-61
2021/06/27 08:46:05;;;;;;;23.52;18.15;;;;;;;24.06;59.66;101627.84;5107898;28;20093;-61
2021/06/27 08:48:36;;;;;;;25.30;18.38;;;;;;;24.14;59.90;101634.03;5113782;28;20039;-61
2021/06/27 08:51:04;;;;;;;23.45;19.00;;;;;;;24.36;59.20;101631.63;5098819;28;20504;-61
2021/06/27 08:53:35;;;;;;;23.25;19.35;;;;;;;24.31;59.25;101631.34;5111575;28;20093;-61
2021/06/27 08:56:07;;;;;;;23.90;18.75;;;;;;;24.38;60.03;101628.78;5093584;28;20556;-62
2021/06/27 08:58:44;;;;;;;23.20;19.25;;;;;;;24.16;60.81;101639.25;5118709;28;20527;-54
2021/06/27 09:01:14;;;;;;;23.42;18.70;;;;;;;24.32;59.19;101627.63;5113425;28;20051;-57
2021/06/27 09:03:44;;;;;;;23.15;18.38;;;;;;;24.23;59.55;101629.50;5099061;28;20079;-56
2021/06/27 09:06:11;;;;;;;22.70;17.80;;;;;;;24.58;58.19;101634.59;5094078;28;20080;-56
2021/06/27 09:08:38;;;;;;;22.38;18.27;;;;;;;24.43;58.73;101626.41;5127952;28;20039;-57
2021/06/27 09:11:13;;;;;;;23.23;18.38;;;;;;;24.30;59.14;101626.97;5115682;28;20457;-56
2021/06/27 09:13:42;;;;;;;22.83;17.42;;;;;;;24.25;58.95;101621.25;5099255;28;20054;-54
2021/06/27 09:16:35;;;;;;;23.55;17.52;;;;;;;24.51;59.23;101617.50;5112652;27;20054;-56
2021/06/27 09:19:02;;;;;;;22.30;17.17;;;;;;;24.65;58.28;101624.88;5107969;27;20519;-56
2021/06/27 09:21:30;;;;;;;21.30;16.67;;;;;;;24.80;58.33;101623.13;5106422;27;20043;-56
2021/06/27 09:23:57;;;;;;;23.60;18.55;;;;;;;24.79;57.20;101616.06;5130158;27;20103;-56
2021/06/27 09:26:28;;;;;;;22.20;18.02;;;;;;;24.92;56.52;101609.25;5117507;27;20495;-56
2021/06/27 09:28:55;;;;;;;21.15;17.80;;;;;;;24.98;56.54;101606.72;5118314;27;20050;-57
2021/06/27 09:31:38;;;;;;;23.33;17.52;;;;;;;25.09;57.10;101599.25;5117386;27;20463;-56
2021/06/27 09:34:16;;;;;;;23.88;17.92;;;;;;;25.20;56.74;101595.31;5132389;28;20504;-56
2021/06/27 09:36:52;;;;;;;21.42;17.60;;;;;;;25.20;55.97;101595.31;5102250;28;20043;-61
2021/06/27 09:39:19;;;;;;;21.45;16.92;;;;;;;25.33;55.08;101595.56;5113995;28;20044;-61
2021/06/27 09:41:55;;;;;;;21.38;16.92;;;;;;;25.43;55.47;101598.03;5094726;28;20105;-61
2021/06/27 09:44:22;;;;;;;18.70;15.25;;;;;;;25.44;55.03;101597.00;5113375;28;20047;-56
2021/06/27 09:46:54;;;;;;;20.52;16.50;;;;;;;25.77;55.10;101600.28;5112199;28;20051;-56
2021/06/27 09:49:28;;;;;;;20.30;16.42;;;;;;;25.80;53.04;101594.50;5094433;28;20471;-61
2021/06/27 09:52:07;;;;;;;17.95;13.85;;;;;;;25.92;52.37;101585.97;5113424;28;20051;-62
2021/06/27 09:54:35;;;;;;;15.55;12.50;;;;;;;26.10;50.65;101593.75;5113331;28;20036;-61
2021/06/27 09:57:02;;;;;;;17.02;13.63;;;;;;;26.15;53.70;101594.88;5112761;28;20092;-61
2021/06/27 09:59:34;;;;;;;20.13;13.88;;;;;;;26.24;50.67;101584.81;5112478;28;20051;-62
2021/06/27 10:02:01;;;;;;;18.88;15.48;;;;;;;26.30;52.63;101588.63;5112317;28;20035;-62
2021/06/27 10:04:30;;;;;;;17.50;14.65;;;;;;;26.32;52.76;101586.59;5111852;28;20518;-57
2021/06/27 10:07:00;;;;;;;19.27;14.93;;;;;;;26.21;52.34;101582.50;5112517;28;20047;-57
2021/06/27 10:09:35;;;;;;;17.50;14.23;;;;;;;26.44;51.91;101576.19;5112647;28;20067;-57
2021/06/27 10:12:06;;;;;;;17.20;13.95;;;;;;;26.55;52.08;101569.47;5112083;28;20051;-57
2021/06/27 10:14:48;;;;;;;17.30;14.63;;;;;;;26.67;51.40;101573.34;5112142;28;20899;-55
2021/06/27 10:17:16;;;;;;;17.27;14.00;;;;;;;26.79;51.73;101569.19;5112421;28;20059;-57
2021/06/27 10:19:43;;;;;;;16.45;14.32;;;;;;;26.66;51.53;101564.41;5093531;28;20101;-56
2021/06/27 10:22:10;;;;;;;16.58;14.00;;;;;;;26.89;51.81;101568.03;5094269;28;20047;-57
2021/06/27 10:24:37;;;;;;;15.50;13.52;;;;;;;27.20;50.76;101562.34;5093748;28;20096;-56
2021/06/27 10:27:05;;;;;;;17.17;14.10;;;;;;;27.30;48.99;101554.72;5111606;28;20052;-54
2021/06/27 10:29:36;;;;;;;16.52;13.50;;;;;;;27.15;51.05;101554.78;5111830;28;20054;-57
2021/06/27 10:32:03;;;;;;;16.10;12.93;;;;;;;27.32;51.48;101547.28;5111607;28;20054;-61
2021/06/27 10:34:30;;;;;;;17.55;13.23;;;;;;;27.45;49.06;101546.56;5093599;28;20048;-61
2021/06/27 10:37:17;;;;;;;14.88;12.18;;;;;;;27.50;49.69;101554.13;5111960;28;20051;-61
2021/06/27 10:40:00;;;;;;;14.00;11.70;;;;;;;27.57;49.32;101548.72;5111907;28;20047;-62
2021/06/27 10:42:53;;;;;;;15.57;11.98;;;;;;;27.49;49.38;101552.44;5111343;28;20050;-57
2021/06/27 10:45:22;;;;;;;14.07;10.98;;;;;;;27.54;50.31;101554.53;5111304;28;20048;-55
2021/06/27 10:47:50;;;;;;;14.70;12.18;;;;;;;27.51;49.75;101552.22;5111429;28;20048;-61
2021/06/27 10:50:17;;;;;;;15.82;11.82;;;;;;;27.53;49.57;101544.75;5110580;28;20537;-62
2021/06/27 10:52:50;;;;;;;15.30;11.95;;;;;;;27.53;47.77;101547.47;5094237;28;20063;-57
2021/06/27 10:55:20;;;;;;;13.10;10.38;;;;;;;27.85;48.79;101550.63;5111799;28;20051;-57
2021/06/27 10:58:04;;;;;;;13.63;11.48;;;;;;;28.03;46.68;101539.31;5110872;28;20055;-56
2021/06/27 11:00:53;;;;;;;12.10;10.10;;;;;;;28.16;46.58;101542.91;5111214;28;20487;-57
2021/06/27 11:03:31;;;;;;;13.32;10.75;;;;;;;28.26;47.49;101541.72;5111014;28;20108;-61
2021/06/27 11:05:59;;;;;;;11.98;9.43;;;;;;;28.32;46.28;101530.94;5111142;28;20093;-61
2021/06/27 11:08:36;;;;;;;15.90;9.68;;;;;;;28.34;44.72;101536.13;5093738;28;20051;-61
2021/06/27 11:11:12;;;;;;;10.43;8.02;;;;;;;28.28;45.53;101526.97;5111193;28;20038;-62
2021/06/27 11:13:42;;;;;;;11.13;8.27;;;;;;;28.45;43.45;101532.84;5111315;28;20411;-57
2021/06/27 11:16:14;;;;;;;10.18;7.22;;;;;;;28.57;42.20;101529.56;5110598;28;20065;-57